map of GAJ home
GAJ - Airport
Location
City:  Yamagata, Yamagata, Japan
Near (Alt.):Higashine
Name:Yamagata Airport
ICAO:RJSC
IATA:GAJ

Details
Type:Airport (Aerodrome, Airfield)
Use:Public/Civil, Military
Latitude:3824'43"N (38.411894)
Longitude:14022'17"E (140.371331)
Datum:WGS 1984
Elevation:353 ft (108 m)
Variation:8.35W (WMM2015v2 magnetic declination)
-0.06 annual change
Runways:1
Longest:6560 × 150 ft (1999 × 45.5 m), paved

Time
Time Zone:UTC+9
Local Time:

Weather
METAR:RJSC 041000Z 28012KT 240V320 9999 FEW010 SCT040 BKN070 01/M06 Q1018

Related Locations
Nearby:
Farthest:SSMT: 11624 mi / 18706 km
Mostardas, RS, BR

Find:

   beyond  
but within

Other Information
Maps:
NOTAMs:
Links:
Sources:

  
  • flag of Japan
  • flag of Yamagata
  

Sectional Chart

Flight Planning
at skyvector.com

Satellite Image

Google Maps Satellite view

 

Copyright © 2004-2019 Karl L. Swartz. All rights reserved.
The Great Circle Mapper name and logo are trademarks of the Great Circle Mapper.
All other trademarks mentioned herein belong to their respective owners.
Please see credits for attibutions and further copyright information.

  Follow gcmap on Facebook Follow gcmap on Twitter GCmap on LinkedIn

hCard Microformat

Geo Microformat